sensor_id;sensor_type;location;lat;lon;timestamp;temperature;humidity
1453;DHT22;720;47.738;7.998;2023-05-14T00:00:35;7.70;99.90
1453;DHT22;720;47.738;7.998;2023-05-14T00:03:01;7.70;99.90
1453;DHT22;720;47.738;7.998;2023-05-14T00:05:27;7.70;99.90
1453;DHT22;720;47.738;7.998;2023-05-14T00:07:52;7.60;99.90
1453;DHT22;720;47.738;7.998;2023-05-14T00:10:18;7.60;99.90
1453;DHT22;720;47.738;7.998;2023-05-14T00:12:46;7.50;99.90
1453;DHT22;720;47.738;7.998;2023-05-14T00:15:12;7.40;99.90
1453;DHT22;720;47.738;7.998;2023-05-14T00:17:37;7.40;99.90
1453;DHT22;720;47.738;7.998;2023-05-14T00:20:04;7.40;99.90
1453;DHT22;720;47.738;7.998;2023-05-14T00:22:32;7.40;99.90
1453;DHT22;720;47.738;7.998;2023-05-14T00:24:58;7.50;99.90
1453;DHT22;720;47.738;7.998;2023-05-14T00:27:24;7.50;99.90
1453;DHT22;720;47.738;7.998;2023-05-14T00:29:50;7.50;99.90
1453;DHT22;720;47.738;7.998;2023-05-14T00:32:16;7.50;99.90
1453;DHT22;720;47.738;7.998;2023-05-14T00:34:41;7.50;99.90
1453;DHT22;720;47.738;7.998;2023-05-14T00:37:07;7.50;99.90
1453;DHT22;720;47.738;7.998;2023-05-14T00:39:33;7.50;99.90
1453;DHT22;720;47.738;7.998;2023-05-14T00:41:59;7.50;99.90
1453;DHT22;720;47.738;7.998;2023-05-14T00:44:24;7.50;99.90
1453;DHT22;720;47.738;7.998;2023-05-14T00:46:50;7.50;99.90
1453;DHT22;720;47.738;7.998;2023-05-14T00:49:17;7.60;99.90
1453;DHT22;720;47.738;7.998;2023-05-14T00:51:42;7.60;99.90
1453;DHT22;720;47.738;7.998;2023-05-14T00:54:15;7.60;99.90
1453;DHT22;720;47.738;7.998;2023-05-14T00:56:42;7.70;99.90
1453;DHT22;720;47.738;7.998;2023-05-14T00:59:09;7.70;99.90
1453;DHT22;720;47.738;7.998;2023-05-14T01:01:34;7.60;99.90
1453;DHT22;720;47.738;7.998;2023-05-14T01:04:01;7.60;99.90
1453;DHT22;720;47.738;7.998;2023-05-14T01:09:09;7.70;99.90
1453;DHT22;720;47.738;7.998;2023-05-14T01:11:46;7.70;99.90
1453;DHT22;720;47.738;7.998;2023-05-14T01:14:24;7.70;99.90
1453;DHT22;720;47.738;7.998;2023-05-14T01:16:59;7.70;99.90
1453;DHT22;720;47.738;7.998;2023-05-14T01:19:38;7.70;99.90
1453;DHT22;720;47.738;7.998;2023-05-14T01:22:04;7.60;99.90
1453;DHT22;720;47.738;7.998;2023-05-14T01:24:30;7.80;99.90
1453;DHT22;720;47.738;7.998;2023-05-14T01:29:33;8.10;99.90
1453;DHT22;720;47.738;7.998;2023-05-14T01:32:00;8.30;99.90
1453;DHT22;720;47.738;7.998;2023-05-14T01:34:27;8.40;99.90
1453;DHT22;720;47.738;7.998;2023-05-14T01:36:55;8.50;99.90
1453;DHT22;720;47.738;7.998;2023-05-14T01:39:24;8.60;99.90
1453;DHT22;720;47.738;7.998;2023-05-14T01:41:50;8.70;99.90
1453;DHT22;720;47.738;7.998;2023-05-14T01:44:17;8.80;99.90
1453;DHT22;720;47.738;7.998;2023-05-14T01:46:43;8.80;99.90
1453;DHT22;720;47.738;7.998;2023-05-14T01:49:08;8.80;99.90
1453;DHT22;720;47.738;7.998;2023-05-14T01:51:34;8.80;99.90
1453;DHT22;720;47.738;7.998;2023-05-14T01:54:00;8.90;99.90
1453;DHT22;720;47.738;7.998;2023-05-14T01:56:25;9.00;99.90
1453;DHT22;720;47.738;7.998;2023-05-14T01:58:51;9.00;99.90
1453;DHT22;720;47.738;7.998;2023-05-14T02:01:17;9.10;99.90
1453;DHT22;720;47.738;7.998;2023-05-14T02:03:42;9.10;99.90
1453;DHT22;720;47.738;7.998;2023-05-14T02:06:08;9.10;99.90
1453;DHT22;720;47.738;7.998;2023-05-14T02:08:34;9.20;99.90
1453;DHT22;720;47.738;7.998;2023-05-14T02:10:59;9.20;99.90
1453;DHT22;720;47.738;7.998;2023-05-14T02:13:25;9.20;99.90
1453;DHT22;720;47.738;7.998;2023-05-14T02:15:51;9.30;99.90
1453;DHT22;720;47.738;7.998;2023-05-14T02:18:16;9.30;99.90
1453;DHT22;720;47.738;7.998;2023-05-14T02:20:42;9.30;99.90
1453;DHT22;720;47.738;7.998;2023-05-14T02:23:08;9.30;99.90
1453;DHT22;720;47.738;7.998;2023-05-14T02:25:33;9.30;99.90
1453;DHT22;720;47.738;7.998;2023-05-14T02:27:59;9.30;99.90
1453;DHT22;720;47.738;7.998;2023-05-14T02:30:25;9.30;99.90
1453;DHT22;720;47.738;7.998;2023-05-14T02:32:50;9.50;99.90
1453;DHT22;720;47.738;7.998;2023-05-14T02:35:16;9.60;99.90
1453;DHT22;720;47.738;7.998;2023-05-14T02:37:42;9.60;99.90
1453;DHT22;720;47.738;7.998;2023-05-14T02:40:08;9.60;99.90
1453;DHT22;720;47.738;7.998;2023-05-14T02:42:33;9.70;99.90
1453;DHT22;720;47.738;7.998;2023-05-14T02:44:59;9.70;99.90
1453;DHT22;720;47.738;7.998;2023-05-14T02:47:25;9.70;99.90
1453;DHT22;720;47.738;7.998;2023-05-14T02:49:51;9.70;99.90
1453;DHT22;720;47.738;7.998;2023-05-14T02:52:16;9.70;99.90
1453;DHT22;720;47.738;7.998;2023-05-14T02:54:42;9.70;99.90
1453;DHT22;720;47.738;7.998;2023-05-14T02:57:08;9.80;99.90
1453;DHT22;720;47.738;7.998;2023-05-14T02:59:33;9.90;99.90
1453;DHT22;720;47.738;7.998;2023-05-14T03:01:59;9.80;99.90
1453;DHT22;720;47.738;7.998;2023-05-14T03:04:24;9.90;99.90
1453;DHT22;720;47.738;7.998;2023-05-14T03:06:50;9.90;99.90
1453;DHT22;720;47.738;7.998;2023-05-14T03:09:15;9.90;99.90
1453;DHT22;720;47.738;7.998;2023-05-14T03:11:41;9.80;99.90
1453;DHT22;720;47.738;7.998;2023-05-14T03:14:07;9.80;99.90
1453;DHT22;720;47.738;7.998;2023-05-14T03:16:32;9.90;99.90
1453;DHT22;720;47.738;7.998;2023-05-14T03:18:58;10.00;99.90
1453;DHT22;720;47.738;7.998;2023-05-14T03:21:23;10.00;99.90
1453;DHT22;720;47.738;7.998;2023-05-14T03:23:51;10.00;99.90
1453;DHT22;720;47.738;7.998;2023-05-14T03:26:17;10.00;99.90
1453;DHT22;720;47.738;7.998;2023-05-14T03:28:43;10.10;99.90
1453;DHT22;720;47.738;7.998;2023-05-14T03:31:09;10.20;99.90
1453;DHT22;720;47.738;7.998;2023-05-14T03:33:34;10.20;99.90
1453;DHT22;720;47.738;7.998;2023-05-14T03:36:00;10.30;99.90
1453;DHT22;720;47.738;7.998;2023-05-14T03:38:26;10.30;99.90
1453;DHT22;720;47.738;7.998;2023-05-14T03:40:51;10.30;99.90
1453;DHT22;720;47.738;7.998;2023-05-14T03:43:17;10.30;99.90
1453;DHT22;720;47.738;7.998;2023-05-14T03:45:43;10.20;99.90
1453;DHT22;720;47.738;7.998;2023-05-14T03:48:08;10.20;99.90
1453;DHT22;720;47.738;7.998;2023-05-14T03:50:34;10.30;99.90
1453;DHT22;720;47.738;7.998;2023-05-14T03:53:00;10.40;99.90
1453;DHT22;720;47.738;7.998;2023-05-14T03:55:25;10.40;99.90
1453;DHT22;720;47.738;7.998;2023-05-14T03:57:51;10.40;99.90
1453;DHT22;720;47.738;7.998;2023-05-14T04:00:17;10.30;99.90
1453;DHT22;720;47.738;7.998;2023-05-14T04:02:42;10.20;99.90
1453;DHT22;720;47.738;7.998;2023-05-14T04:05:08;10.10;99.90
1453;DHT22;720;47.738;7.998;2023-05-14T04:07:34;10.10;99.90
1453;DHT22;720;47.738;7.998;2023-05-14T04:10:00;10.20;99.90
1453;DHT22;720;47.738;7.998;2023-05-14T04:12:26;10.30;99.90
1453;DHT22;720;47.738;7.998;2023-05-14T04:14:52;10.30;99.90
1453;DHT22;720;47.738;7.998;2023-05-14T04:17:17;10.40;99.90
1453;DHT22;720;47.738;7.998;2023-05-14T04:19:43;10.40;99.90
1453;DHT22;720;47.738;7.998;2023-05-14T04:22:09;10.50;99.90
1453;DHT22;720;47.738;7.998;2023-05-14T04:24:34;10.50;99.90
1453;DHT22;720;47.738;7.998;2023-05-14T04:27:00;10.40;99.90
1453;DHT22;720;47.738;7.998;2023-05-14T04:29:26;10.40;99.90
1453;DHT22;720;47.738;7.998;2023-05-14T04:31:52;10.50;99.90
1453;DHT22;720;47.738;7.998;2023-05-14T04:34:17;10.50;99.90
1453;DHT22;720;47.738;7.998;2023-05-14T04:36:43;10.50;99.90
1453;DHT22;720;47.738;7.998;2023-05-14T04:39:09;10.40;99.90
1453;DHT22;720;47.738;7.998;2023-05-14T04:41:36;10.50;99.90
1453;DHT22;720;47.738;7.998;2023-05-14T04:44:02;10.50;99.90
1453;DHT22;720;47.738;7.998;2023-05-14T04:46:28;10.50;99.90
1453;DHT22;720;47.738;7.998;2023-05-14T04:48:54;10.60;99.90
1453;DHT22;720;47.738;7.998;2023-05-14T04:51:21;10.70;99.90
1453;DHT22;720;47.738;7.998;2023-05-14T04:53:46;10.70;99.90
1453;DHT22;720;47.738;7.998;2023-05-14T04:56:12;10.70;99.90
1453;DHT22;720;47.738;7.998;2023-05-14T04:58:37;10.80;99.90
1453;DHT22;720;47.738;7.998;2023-05-14T05:01:04;10.80;99.90
1453;DHT22;720;47.738;7.998;2023-05-14T05:03:30;10.80;99.90
1453;DHT22;720;47.738;7.998;2023-05-14T05:05:56;10.80;99.90
1453;DHT22;720;47.738;7.998;2023-05-14T05:08:22;10.90;99.90
1453;DHT22;720;47.738;7.998;2023-05-14T05:10:47;11.00;99.90
1453;DHT22;720;47.738;7.998;2023-05-14T05:13:13;11.10;99.90
1453;DHT22;720;47.738;7.998;2023-05-14T05:15:41;11.20;99.90
1453;DHT22;720;47.738;7.998;2023-05-14T05:18:07;11.30;99.90
1453;DHT22;720;47.738;7.998;2023-05-14T05:20:32;11.30;99.90
1453;DHT22;720;47.738;7.998;2023-05-14T05:22:58;11.40;99.90
1453;DHT22;720;47.738;7.998;2023-05-14T05:25:24;11.70;99.90
1453;DHT22;720;47.738;7.998;2023-05-14T05:27:49;11.90;99.90
1453;DHT22;720;47.738;7.998;2023-05-14T05:30:15;11.90;99.90
1453;DHT22;720;47.738;7.998;2023-05-14T05:32:41;11.90;99.90
1453;DHT22;720;47.738;7.998;2023-05-14T05:35:06;12.10;99.90
1453;DHT22;720;47.738;7.998;2023-05-14T05:37:32;12.10;99.90
1453;DHT22;720;47.738;7.998;2023-05-14T05:39:58;12.20;99.90
1453;DHT22;720;47.738;7.998;2023-05-14T05:42:23;12.30;99.90
1453;DHT22;720;47.738;7.998;2023-05-14T05:44:49;12.50;99.90
1453;DHT22;720;47.738;7.998;2023-05-14T05:47:15;12.50;99.90
1453;DHT22;720;47.738;7.998;2023-05-14T05:49:41;12.60;99.90
1453;DHT22;720;47.738;7.998;2023-05-14T05:52:07;12.70;99.90
1453;DHT22;720;47.738;7.998;2023-05-14T05:54:33;12.60;99.90
1453;DHT22;720;47.738;7.998;2023-05-14T05:56:59;12.60;99.90
1453;DHT22;720;47.738;7.998;2023-05-14T05:59:25;12.70;99.90
1453;DHT22;720;47.738;7.998;2023-05-14T06:01:51;12.60;99.90
1453;DHT22;720;47.738;7.998;2023-05-14T06:04:17;12.70;99.90
1453;DHT22;720;47.738;7.998;2023-05-14T06:06:42;12.80;99.90
1453;DHT22;720;47.738;7.998;2023-05-14T06:09:08;13.00;99.90
1453;DHT22;720;47.738;7.998;2023-05-14T06:11:34;13.30;99.90
1453;DHT22;720;47.738;7.998;2023-05-14T06:14:00;13.70;99.90
1453;DHT22;720;47.738;7.998;2023-05-14T06:16:26;14.40;99.90
1453;DHT22;720;47.738;7.998;2023-05-14T06:18:52;15.40;99.90
1453;DHT22;720;47.738;7.998;2023-05-14T06:21:18;16.70;99.70
1453;DHT22;720;47.738;7.998;2023-05-14T06:23:44;17.50;97.80
1453;DHT22;720;47.738;7.998;2023-05-14T06:26:10;17.90;96.00
1453;DHT22;720;47.738;7.998;2023-05-14T06:28:35;17.70;95.10
1453;DHT22;720;47.738;7.998;2023-05-14T06:31:01;17.40;94.30
1453;DHT22;720;47.738;7.998;2023-05-14T06:33:26;16.70;94.20
1453;DHT22;720;47.738;7.998;2023-05-14T06:35:59;16.30;95.00
1453;DHT22;720;47.738;7.998;2023-05-14T06:38:25;16.00;95.80
1453;DHT22;720;47.738;7.998;2023-05-14T06:40:51;15.90;95.20
1453;DHT22;720;47.738;7.998;2023-05-14T06:43:19;15.60;93.80
1453;DHT22;720;47.738;7.998;2023-05-14T06:45:49;15.40;94.10
1453;DHT22;720;47.738;7.998;2023-05-14T06:48:15;15.30;93.50
1453;DHT22;720;47.738;7.998;2023-05-14T06:50:43;15.10;94.80
1453;DHT22;720;47.738;7.998;2023-05-14T06:53:09;15.10;95.80
1453;DHT22;720;47.738;7.998;2023-05-14T06:55:34;15.20;95.50
1453;DHT22;720;47.738;7.998;2023-05-14T06:58:00;15.40;95.30
1453;DHT22;720;47.738;7.998;2023-05-14T07:00:27;15.60;95.90
1453;DHT22;720;47.738;7.998;2023-05-14T07:02:52;15.60;95.10
1453;DHT22;720;47.738;7.998;2023-05-14T07:05:18;15.60;95.30
1453;DHT22;720;47.738;7.998;2023-05-14T07:07:44;15.70;95.30
1453;DHT22;720;47.738;7.998;2023-05-14T07:10:09;15.70;94.10
1453;DHT22;720;47.738;7.998;2023-05-14T07:12:35;15.50;94.20
1453;DHT22;720;47.738;7.998;2023-05-14T07:15:01;15.50;94.00
1453;DHT22;720;47.738;7.998;2023-05-14T07:17:27;16.00;94.70
1453;DHT22;720;47.738;7.998;2023-05-14T07:19:52;16.40;93.30
1453;DHT22;720;47.738;7.998;2023-05-14T07:22:20;16.90;92.10
1453;DHT22;720;47.738;7.998;2023-05-14T07:24:46;17.30;91.40
1453;DHT22;720;47.738;7.998;2023-05-14T07:27:12;17.70;91.20
1453;DHT22;720;47.738;7.998;2023-05-14T07:29:37;18.00;90.40
1453;DHT22;720;47.738;7.998;2023-05-14T07:32:03;18.70;89.40
1453;DHT22;720;47.738;7.998;2023-05-14T07:34:29;19.50;87.90
1453;DHT22;720;47.738;7.998;2023-05-14T07:36:55;19.60;84.00
1453;DHT22;720;47.738;7.998;2023-05-14T07:39:20;19.40;82.10
1453;DHT22;720;47.738;7.998;2023-05-14T07:41:46;19.00;82.70
1453;DHT22;720;47.738;7.998;2023-05-14T07:44:12;18.50;83.00
1453;DHT22;720;47.738;7.998;2023-05-14T07:46:37;18.20;85.80
1453;DHT22;720;47.738;7.998;2023-05-14T07:49:03;18.00;85.40
1453;DHT22;720;47.738;7.998;2023-05-14T07:51:29;18.00;85.60
1453;DHT22;720;47.738;7.998;2023-05-14T07:53:54;17.80;85.10
1453;DHT22;720;47.738;7.998;2023-05-14T07:56:23;18.00;86.70
1453;DHT22;720;47.738;7.998;2023-05-14T07:58:49;18.20;85.50
1453;DHT22;720;47.738;7.998;2023-05-14T08:01:16;18.10;83.60
1453;DHT22;720;47.738;7.998;2023-05-14T08:03:41;17.70;85.90
1453;DHT22;720;47.738;7.998;2023-05-14T08:06:07;17.20;86.80
1453;DHT22;720;47.738;7.998;2023-05-14T08:08:32;16.80;87.80
1453;DHT22;720;47.738;7.998;2023-05-14T08:10:58;16.30;88.30
1453;DHT22;720;47.738;7.998;2023-05-14T08:13:25;15.90;89.80
1453;DHT22;720;47.738;7.998;2023-05-14T08:15:50;15.70;90.00
1453;DHT22;720;47.738;7.998;2023-05-14T08:18:16;15.40;90.50
1453;DHT22;720;47.738;7.998;2023-05-14T08:20:42;15.20;91.20
1453;DHT22;720;47.738;7.998;2023-05-14T08:23:08;15.10;91.70
1453;DHT22;720;47.738;7.998;2023-05-14T08:25:34;15.00;92.70
1453;DHT22;720;47.738;7.998;2023-05-14T08:27:59;14.90;93.20
1453;DHT22;720;47.738;7.998;2023-05-14T08:30:26;14.80;93.80
1453;DHT22;720;47.738;7.998;2023-05-14T08:32:52;14.70;94.70
1453;DHT22;720;47.738;7.998;2023-05-14T08:35:17;14.60;95.60
1453;DHT22;720;47.738;7.998;2023-05-14T08:37:43;14.40;97.70
1453;DHT22;720;47.738;7.998;2023-05-14T08:40:09;14.10;99.40
1453;DHT22;720;47.738;7.998;2023-05-14T08:42:37;13.90;99.90
1453;DHT22;720;47.738;7.998;2023-05-14T08:45:08;13.90;99.90
1453;DHT22;720;47.738;7.998;2023-05-14T08:47:36;13.90;99.90
1453;DHT22;720;47.738;7.998;2023-05-14T08:50:03;13.90;99.90
1453;DHT22;720;47.738;7.998;2023-05-14T08:52:30;13.90;99.90
1453;DHT22;720;47.738;7.998;2023-05-14T08:54:59;14.00;99.90
1453;DHT22;720;47.738;7.998;2023-05-14T08:57:25;14.10;99.90
1453;DHT22;720;47.738;7.998;2023-05-14T08:59:52;14.10;99.90
1453;DHT22;720;47.738;7.998;2023-05-14T09:02:23;14.30;99.80
1453;DHT22;720;47.738;7.998;2023-05-14T09:04:54;14.70;99.70
1453;DHT22;720;47.738;7.998;2023-05-14T09:07:20;15.00;98.40
1453;DHT22;720;47.738;7.998;2023-05-14T09:09:46;15.30;97.70
1453;DHT22;720;47.738;7.998;2023-05-14T09:12:11;15.70;97.30
1453;DHT22;720;47.738;7.998;2023-05-14T09:14:37;16.00;96.50
1453;DHT22;720;47.738;7.998;2023-05-14T09:17:03;16.40;96.30
1453;DHT22;720;47.738;7.998;2023-05-14T09:19:29;16.90;95.50
1453;DHT22;720;47.738;7.998;2023-05-14T09:21:56;17.40;94.90
1453;DHT22;720;47.738;7.998;2023-05-14T09:24:26;17.70;92.50
1453;DHT22;720;47.738;7.998;2023-05-14T09:26:55;18.20;93.00
1453;DHT22;720;47.738;7.998;2023-05-14T09:29:25;18.70;89.10
1453;DHT22;720;47.738;7.998;2023-05-14T09:31:52;19.10;87.90
1453;DHT22;720;47.738;7.998;2023-05-14T09:34:28;19.20;86.80
1453;DHT22;720;47.738;7.998;2023-05-14T09:37:03;19.10;85.70
1453;DHT22;720;47.738;7.998;2023-05-14T09:39:29;19.00;82.40
1453;DHT22;720;47.738;7.998;2023-05-14T09:41:55;18.90;83.50
1453;DHT22;720;47.738;7.998;2023-05-14T09:44:22;18.70;86.50
1453;DHT22;720;47.738;7.998;2023-05-14T09:46:48;18.40;85.90
1453;DHT22;720;47.738;7.998;2023-05-14T09:49:14;17.90;88.50
1453;DHT22;720;47.738;7.998;2023-05-14T09:51:40;17.80;88.50
1453;DHT22;720;47.738;7.998;2023-05-14T09:54:06;18.00;88.40
1453;DHT22;720;47.738;7.998;2023-05-14T09:56:33;18.10;87.60
1453;DHT22;720;47.738;7.998;2023-05-14T09:58:59;17.90;86.70
1453;DHT22;720;47.738;7.998;2023-05-14T10:01:25;17.50;88.40
1453;DHT22;720;47.738;7.998;2023-05-14T10:03:53;17.20;87.50
1453;DHT22;720;47.738;7.998;2023-05-14T10:06:22;16.90;89.40
1453;DHT22;720;47.738;7.998;2023-05-14T10:08:53;16.70;89.70
1453;DHT22;720;47.738;7.998;2023-05-14T10:11:23;16.40;90.40
1453;DHT22;720;47.738;7.998;2023-05-14T10:14:08;16.30;91.90
1453;DHT22;720;47.738;7.998;2023-05-14T10:16:40;16.40;90.50
1453;DHT22;720;47.738;7.998;2023-05-14T10:19:09;16.30;92.50
1453;DHT22;720;47.738;7.998;2023-05-14T10:21:36;15.90;93.80
1453;DHT22;720;47.738;7.998;2023-05-14T10:24:03;15.50;94.90
1453;DHT22;720;47.738;7.998;2023-05-14T10:26:31;15.40;96.10
1453;DHT22;720;47.738;7.998;2023-05-14T10:28:57;15.40;96.80
1453;DHT22;720;47.738;7.998;2023-05-14T10:31:48;15.40;97.00
1453;DHT22;720;47.738;7.998;2023-05-14T10:34:35;15.30;97.60
1453;DHT22;720;47.738;7.998;2023-05-14T10:37:19;15.10;98.20
1453;DHT22;720;47.738;7.998;2023-05-14T10:42:25;14.40;99.50
1453;DHT22;720;47.738;7.998;2023-05-14T10:45:01;14.30;99.90
1453;DHT22;720;47.738;7.998;2023-05-14T10:47:34;14.20;99.90
1453;DHT22;720;47.738;7.998;2023-05-14T10:50:03;14.40;99.90
1453;DHT22;720;47.738;7.998;2023-05-14T10:52:30;14.40;99.90
1453;DHT22;720;47.738;7.998;2023-05-14T10:55:00;14.30;99.90
1453;DHT22;720;47.738;7.998;2023-05-14T10:57:28;14.30;99.90
1453;DHT22;720;47.738;7.998;2023-05-14T10:59:55;14.50;99.90
1453;DHT22;720;47.738;7.998;2023-05-14T11:02:35;14.80;99.90
1453;DHT22;720;47.738;7.998;2023-05-14T11:05:06;15.20;99.40
1453;DHT22;720;47.738;7.998;2023-05-14T11:07:38;15.40;99.30
1453;DHT22;720;47.738;7.998;2023-05-14T11:10:07;15.60;98.80
1453;DHT22;720;47.738;7.998;2023-05-14T11:12:34;15.90;97.90
1453;DHT22;720;47.738;7.998;2023-05-14T11:15:02;16.10;97.50
1453;DHT22;720;47.738;7.998;2023-05-14T11:17:29;16.30;97.20
1453;DHT22;720;47.738;7.998;2023-05-14T11:19:56;16.60;97.20
1453;DHT22;720;47.738;7.998;2023-05-14T11:22:22;16.80;96.90
1453;DHT22;720;47.738;7.998;2023-05-14T11:24:48;17.00;96.30
1453;DHT22;720;47.738;7.998;2023-05-14T11:27:14;17.10;95.80
1453;DHT22;720;47.738;7.998;2023-05-14T11:29:45;17.30;95.70
1453;DHT22;720;47.738;7.998;2023-05-14T11:32:12;17.30;95.30
1453;DHT22;720;47.738;7.998;2023-05-14T11:34:38;17.10;95.00
1453;DHT22;720;47.738;7.998;2023-05-14T11:37:05;16.90;95.10
1453;DHT22;720;47.738;7.998;2023-05-14T11:39:32;17.20;95.50
1453;DHT22;720;47.738;7.998;2023-05-14T11:41:58;17.30;94.70
1453;DHT22;720;47.738;7.998;2023-05-14T11:44:26;17.30;94.70
1453;DHT22;720;47.738;7.998;2023-05-14T11:46:57;17.50;95.20
1453;DHT22;720;47.738;7.998;2023-05-14T11:49:23;17.60;92.90
1453;DHT22;720;47.738;7.998;2023-05-14T11:52:03;17.70;91.90
1453;DHT22;720;47.738;7.998;2023-05-14T11:54:29;17.80;91.70
1453;DHT22;720;47.738;7.998;2023-05-14T11:56:56;18.00;91.20
1453;DHT22;720;47.738;7.998;2023-05-14T11:59:30;17.90;92.40
1453;DHT22;720;47.738;7.998;2023-05-14T12:01:57;17.10;92.00
1453;DHT22;720;47.738;7.998;2023-05-14T12:04:23;16.40;93.20
1453;DHT22;720;47.738;7.998;2023-05-14T12:06:52;15.80;93.50
1453;DHT22;720;47.738;7.998;2023-05-14T12:09:21;15.20;94.30
1453;DHT22;720;47.738;7.998;2023-05-14T12:11:48;15.10;95.20
1453;DHT22;720;47.738;7.998;2023-05-14T12:14:20;15.10;95.40
1453;DHT22;720;47.738;7.998;2023-05-14T12:16:46;15.00;95.40
1453;DHT22;720;47.738;7.998;2023-05-14T12:19:17;14.90;95.90
1453;DHT22;720;47.738;7.998;2023-05-14T12:21:45;14.90;96.50
1453;DHT22;720;47.738;7.998;2023-05-14T12:24:12;14.90;96.80
1453;DHT22;720;47.738;7.998;2023-05-14T12:26:39;14.80;97.20
1453;DHT22;720;47.738;7.998;2023-05-14T12:29:05;14.80;97.90
1453;DHT22;720;47.738;7.998;2023-05-14T12:31:34;14.80;98.10
1453;DHT22;720;47.738;7.998;2023-05-14T12:34:01;14.60;98.30
1453;DHT22;720;47.738;7.998;2023-05-14T12:36:27;14.50;98.40
1453;DHT22;720;47.738;7.998;2023-05-14T12:38:59;14.40;98.50
1453;DHT22;720;47.738;7.998;2023-05-14T12:41:31;14.40;98.30
1453;DHT22;720;47.738;7.998;2023-05-14T12:43:58;14.40;98.70
1453;DHT22;720;47.738;7.998;2023-05-14T12:46:25;14.40;98.60
1453;DHT22;720;47.738;7.998;2023-05-14T12:48:50;14.40;98.80
1453;DHT22;720;47.738;7.998;2023-05-14T12:51:16;14.40;99.30
1453;DHT22;720;47.738;7.998;2023-05-14T12:53:42;14.40;99.50
1453;DHT22;720;47.738;7.998;2023-05-14T12:56:07;14.20;99.90
1453;DHT22;720;47.738;7.998;2023-05-14T12:58:33;14.00;99.90
1453;DHT22;720;47.738;7.998;2023-05-14T13:00:59;14.10;99.90
1453;DHT22;720;47.738;7.998;2023-05-14T13:03:24;14.20;99.90
1453;DHT22;720;47.738;7.998;2023-05-14T13:05:51;14.20;99.90
1453;DHT22;720;47.738;7.998;2023-05-14T13:08:17;14.10;99.90
1453;DHT22;720;47.738;7.998;2023-05-14T13:10:46;14.10;99.90
1453;DHT22;720;47.738;7.998;2023-05-14T13:13:13;13.90;99.90
1453;DHT22;720;47.738;7.998;2023-05-14T13:15:39;13.80;99.90
1453;DHT22;720;47.738;7.998;2023-05-14T13:18:05;13.60;99.90
1453;DHT22;720;47.738;7.998;2023-05-14T13:20:32;13.60;99.90
1453;DHT22;720;47.738;7.998;2023-05-14T13:22:57;13.80;99.90
1453;DHT22;720;47.738;7.998;2023-05-14T13:25:23;13.80;99.90
1453;DHT22;720;47.738;7.998;2023-05-14T13:27:49;14.00;99.90
1453;DHT22;720;47.738;7.998;2023-05-14T13:30:17;14.20;99.90
1453;DHT22;720;47.738;7.998;2023-05-14T13:32:43;14.20;99.90
1453;DHT22;720;47.738;7.998;2023-05-14T13:35:09;14.20;99.90
1453;DHT22;720;47.738;7.998;2023-05-14T13:37:35;14.00;99.90
1453;DHT22;720;47.738;7.998;2023-05-14T13:40:01;13.90;99.90
1453;DHT22;720;47.738;7.998;2023-05-14T13:42:29;14.00;99.90
1453;DHT22;720;47.738;7.998;2023-05-14T13:44:56;14.00;99.90
1453;DHT22;720;47.738;7.998;2023-05-14T13:47:21;14.00;99.90
1453;DHT22;720;47.738;7.998;2023-05-14T13:49:47;14.20;99.90
1453;DHT22;720;47.738;7.998;2023-05-14T13:52:13;14.50;99.90
1453;DHT22;720;47.738;7.998;2023-05-14T13:54:38;14.80;99.90
1453;DHT22;720;47.738;7.998;2023-05-14T13:57:04;15.00;99.90
1453;DHT22;720;47.738;7.998;2023-05-14T13:59:30;15.50;99.90
1453;DHT22;720;47.738;7.998;2023-05-14T14:01:56;15.80;99.90
1453;DHT22;720;47.738;7.998;2023-05-14T14:04:21;15.90;98.40
1453;DHT22;720;47.738;7.998;2023-05-14T14:06:48;15.80;98.10
1453;DHT22;720;47.738;7.998;2023-05-14T14:09:14;16.10;98.10
1453;DHT22;720;47.738;7.998;2023-05-14T14:11:40;16.50;95.60
1453;DHT22;720;47.738;7.998;2023-05-14T14:14:05;16.90;94.50
1453;DHT22;720;47.738;7.998;2023-05-14T14:16:31;17.20;93.20
1453;DHT22;720;47.738;7.998;2023-05-14T14:18:56;17.00;93.70
1453;DHT22;720;47.738;7.998;2023-05-14T14:21:22;16.90;93.40
1453;DHT22;720;47.738;7.998;2023-05-14T14:23:48;16.70;94.10
1453;DHT22;720;47.738;7.998;2023-05-14T14:26:13;16.60;95.60
1453;DHT22;720;47.738;7.998;2023-05-14T14:28:39;16.50;95.40
1453;DHT22;720;47.738;7.998;2023-05-14T14:31:05;16.60;94.50
1453;DHT22;720;47.738;7.998;2023-05-14T14:33:31;16.70;92.90
1453;DHT22;720;47.738;7.998;2023-05-14T14:35:56;16.80;92.90
1453;DHT22;720;47.738;7.998;2023-05-14T14:38:23;16.80;91.50
1453;DHT22;720;47.738;7.998;2023-05-14T14:40:48;16.90;90.20
1453;DHT22;720;47.738;7.998;2023-05-14T14:43:14;16.90;90.40
1453;DHT22;720;47.738;7.998;2023-05-14T14:45:40;17.00;91.90
1453;DHT22;720;47.738;7.998;2023-05-14T14:48:27;17.30;92.70
1453;DHT22;720;47.738;7.998;2023-05-14T14:50:55;17.70;91.00
1453;DHT22;720;47.738;7.998;2023-05-14T14:53:22;18.00;89.20
1453;DHT22;720;47.738;7.998;2023-05-14T14:55:48;18.20;87.50
1453;DHT22;720;47.738;7.998;2023-05-14T14:58:14;18.30;88.10
1453;DHT22;720;47.738;7.998;2023-05-14T15:00:40;18.20;85.50
1453;DHT22;720;47.738;7.998;2023-05-14T15:03:06;18.20;86.90
1453;DHT22;720;47.738;7.998;2023-05-14T15:05:33;18.10;86.60
1453;DHT22;720;47.738;7.998;2023-05-14T15:07:59;18.00;87.50
1453;DHT22;720;47.738;7.998;2023-05-14T15:10:26;17.80;89.70
1453;DHT22;720;47.738;7.998;2023-05-14T15:12:54;17.70;90.10
1453;DHT22;720;47.738;7.998;2023-05-14T15:15:19;17.60;86.00
1453;DHT22;720;47.738;7.998;2023-05-14T15:17:45;17.40;85.40
1453;DHT22;720;47.738;7.998;2023-05-14T15:20:11;17.10;84.60
1453;DHT22;720;47.738;7.998;2023-05-14T15:22:37;16.90;87.50
1453;DHT22;720;47.738;7.998;2023-05-14T15:25:03;16.70;84.70
1453;DHT22;720;47.738;7.998;2023-05-14T15:27:29;16.50;87.60
1453;DHT22;720;47.738;7.998;2023-05-14T15:29:54;16.20;89.40
1453;DHT22;720;47.738;7.998;2023-05-14T15:32:20;15.90;90.00
1453;DHT22;720;47.738;7.998;2023-05-14T15:34:46;15.90;90.30
1453;DHT22;720;47.738;7.998;2023-05-14T15:37:11;15.90;92.70
1453;DHT22;720;47.738;7.998;2023-05-14T15:39:37;15.90;91.90
1453;DHT22;720;47.738;7.998;2023-05-14T15:42:03;16.00;94.80
1453;DHT22;720;47.738;7.998;2023-05-14T15:44:29;15.90;94.50
1453;DHT22;720;47.738;7.998;2023-05-14T15:46:55;16.00;94.10
1453;DHT22;720;47.738;7.998;2023-05-14T15:49:20;16.10;94.40
1453;DHT22;720;47.738;7.998;2023-05-14T15:51:46;16.20;94.00
1453;DHT22;720;47.738;7.998;2023-05-14T15:54:12;16.30;95.20
1453;DHT22;720;47.738;7.998;2023-05-14T15:56:37;16.40;95.00
1453;DHT22;720;47.738;7.998;2023-05-14T15:59:03;16.30;95.80
1453;DHT22;720;47.738;7.998;2023-05-14T16:01:28;16.40;95.70
1453;DHT22;720;47.738;7.998;2023-05-14T16:03:54;16.40;96.50
1453;DHT22;720;47.738;7.998;2023-05-14T16:06:20;16.40;95.50
1453;DHT22;720;47.738;7.998;2023-05-14T16:08:45;16.50;94.90
1453;DHT22;720;47.738;7.998;2023-05-14T16:11:11;16.60;93.10
1453;DHT22;720;47.738;7.998;2023-05-14T16:13:37;16.50;91.40
1453;DHT22;720;47.738;7.998;2023-05-14T16:16:05;16.50;91.40
1453;DHT22;720;47.738;7.998;2023-05-14T16:18:32;16.40;93.10
1453;DHT22;720;47.738;7.998;2023-05-14T16:20:58;16.10;95.20
1453;DHT22;720;47.738;7.998;2023-05-14T16:23:23;16.00;92.40
1453;DHT22;720;47.738;7.998;2023-05-14T16:25:49;15.80;90.10